createdAt,value
2019-05-21T00:02:02.028Z,99.90
2019-05-21T00:04:30.731Z,99.90
2019-05-21T00:06:59.366Z,99.90
2019-05-21T00:09:28.073Z,99.90
2019-05-21T00:11:56.681Z,99.90
2019-05-21T00:14:25.467Z,99.90
2019-05-21T00:16:54.200Z,99.90
2019-05-21T00:19:22.841Z,99.90
2019-05-21T00:21:51.527Z,99.90
2019-05-21T00:24:20.308Z,99.90
2019-05-21T00:26:49.067Z,99.90
2019-05-21T00:29:53.947Z,99.90
2019-05-21T00:32:58.825Z,99.90
2019-05-21T00:36:03.558Z,99.90
2019-05-21T00:39:08.963Z,99.90
2019-05-21T00:42:03.117Z,99.90
2019-05-21T00:44:38.004Z,99.90
2019-05-21T00:47:08.710Z,99.90
2019-05-21T00:49:38.030Z,99.90
2019-05-21T00:52:09.023Z,99.90
2019-05-21T00:54:38.413Z,99.90
2019-05-21T00:57:07.091Z,99.90
2019-05-21T00:59:35.889Z,99.90
2019-05-21T01:02:04.618Z,99.90
2019-05-21T01:04:33.435Z,99.90
2019-05-21T01:07:02.371Z,99.90
2019-05-21T01:09:31.377Z,99.90
2019-05-21T01:12:00.128Z,99.90
2019-05-21T01:14:28.847Z,99.90
2019-05-21T01:16:57.463Z,99.90
2019-05-21T01:19:26.269Z,99.90
2019-05-21T01:21:55.098Z,99.90
2019-05-21T01:24:23.889Z,99.90
2019-05-21T01:26:52.711Z,99.90
2019-05-21T01:29:21.602Z,99.90
2019-05-21T01:31:50.239Z,99.90
2019-05-21T01:34:19.471Z,99.90
2019-05-21T01:36:48.180Z,99.90
2019-05-21T01:39:16.967Z,99.90
2019-05-21T01:41:45.557Z,99.90
2019-05-21T01:44:14.348Z,99.90
2019-05-21T01:46:43.279Z,99.90
2019-05-21T01:49:11.935Z,99.90
2019-05-21T01:51:40.799Z,99.90
2019-05-21T01:54:09.550Z,99.90
2019-05-21T01:56:38.227Z,99.90
2019-05-21T01:59:06.890Z,99.90
2019-05-21T02:01:35.677Z,99.90
2019-05-21T02:04:04.677Z,99.90
2019-05-21T02:06:33.518Z,99.90
2019-05-21T02:09:02.286Z,99.90
2019-05-21T02:11:31.031Z,99.90
2019-05-21T02:13:59.743Z,99.90
2019-05-21T02:16:28.351Z,99.90
2019-05-21T02:18:57.216Z,99.90
2019-05-21T02:21:25.943Z,99.90
2019-05-21T02:23:54.763Z,99.90
2019-05-21T02:26:23.327Z,99.90
2019-05-21T02:28:52.029Z,99.90
2019-05-21T02:31:20.631Z,99.90
2019-05-21T02:33:49.477Z,99.90
2019-05-21T02:36:20.137Z,99.90
2019-05-21T02:38:48.778Z,99.90
2019-05-21T02:41:17.438Z,99.90
2019-05-21T02:43:46.248Z,99.90
2019-05-21T02:46:15.144Z,99.90
2019-05-21T02:48:43.837Z,99.90
2019-05-21T02:51:12.511Z,99.90
2019-05-21T02:53:41.238Z,99.90
2019-05-21T02:56:10.087Z,99.90
2019-05-21T02:58:38.968Z,99.90
2019-05-21T03:04:39.283Z,99.90
2019-05-21T03:07:20.479Z,99.90
2019-05-21T03:09:49.796Z,99.90
2019-05-21T03:12:18.874Z,99.90
2019-05-21T03:14:47.936Z,99.90
2019-05-21T03:17:16.773Z,99.90
2019-05-21T03:19:45.652Z,99.90
2019-05-21T03:22:14.311Z,99.90
2019-05-21T03:24:43.070Z,99.90
2019-05-21T03:27:11.759Z,99.90
2019-05-21T03:29:40.503Z,99.90
2019-05-21T03:32:09.337Z,99.90
2019-05-21T03:34:37.980Z,99.90
2019-05-21T03:40:34.852Z,99.90
2019-05-21T03:43:03.730Z,99.90
2019-05-21T03:45:32.537Z,99.90
2019-05-21T03:48:01.346Z,99.90
2019-05-21T03:50:30.135Z,99.90
2019-05-21T03:52:58.820Z,99.90
2019-05-21T03:55:27.673Z,99.90
2019-05-21T03:57:56.316Z,99.90
2019-05-21T04:00:25.047Z,99.90
2019-05-21T04:02:53.799Z,99.90
2019-05-21T04:05:25.164Z,99.90
2019-05-21T04:07:56.806Z,99.90
2019-05-21T04:10:25.864Z,99.90
2019-05-21T04:13:09.981Z,99.90
2019-05-21T04:15:46.979Z,99.90
2019-05-21T04:18:23.240Z,99.90
2019-05-21T04:20:51.990Z,99.90
2019-05-21T04:23:20.877Z,99.90
2019-05-21T04:25:49.485Z,99.90
2019-05-21T04:28:18.187Z,99.90
2019-05-21T04:30:46.981Z,99.90
2019-05-21T04:33:15.829Z,99.90
2019-05-21T04:35:44.638Z,99.90
2019-05-21T04:38:14.404Z,99.90
2019-05-21T04:40:43.063Z,99.90
2019-05-21T04:43:11.782Z,99.90
2019-05-21T04:45:40.643Z,99.90
2019-05-21T04:48:09.376Z,99.90
2019-05-21T04:50:37.948Z,99.90
2019-05-21T04:53:06.800Z,99.90
2019-05-21T04:55:35.531Z,99.90
2019-05-21T04:58:04.459Z,99.90
2019-05-21T05:00:33.368Z,99.90
2019-05-21T05:03:01.954Z,99.90
2019-05-21T05:05:30.705Z,99.90
2019-05-21T05:08:18.749Z,99.90
2019-05-21T05:10:49.403Z,99.90
2019-05-21T05:13:18.102Z,99.90
2019-05-21T05:15:46.858Z,99.90
2019-05-21T05:18:15.662Z,99.90
2019-05-21T05:20:44.330Z,99.90
2019-05-21T05:23:13.021Z,99.90
2019-05-21T05:25:41.735Z,99.90
2019-05-21T05:28:10.458Z,99.90
2019-05-21T05:30:39.185Z,99.90
2019-05-21T05:33:08.005Z,99.10
2019-05-21T05:35:36.674Z,99.50
2019-05-21T05:38:05.464Z,98.00
2019-05-21T05:40:34.278Z,97.80
2019-05-21T05:43:02.947Z,97.20
2019-05-21T05:45:31.612Z,96.60
2019-05-21T05:48:00.250Z,97.80
2019-05-21T05:50:33.840Z,97.70
2019-05-21T05:53:02.555Z,96.70
2019-05-21T05:55:31.272Z,98.30
2019-05-21T05:58:00.009Z,97.00
2019-05-21T06:00:29.310Z,92.30
2019-05-21T06:02:58.009Z,89.60
2019-05-21T06:05:26.997Z,86.10
2019-05-21T06:07:59.915Z,85.80
2019-05-21T06:10:26.165Z,82.80
2019-05-21T06:12:54.786Z,83.30
2019-05-21T06:15:23.612Z,84.30
2019-05-21T06:17:52.378Z,82.90
2019-05-21T06:20:21.365Z,81.10
2019-05-21T06:22:50.090Z,88.20
2019-05-21T06:25:20.008Z,87.70
2019-05-21T06:27:48.707Z,84.30
2019-05-21T06:30:17.900Z,77.80
2019-05-21T06:32:46.668Z,76.70
2019-05-21T06:35:16.177Z,79.20
2019-05-21T06:37:44.803Z,80.90
2019-05-21T06:40:14.281Z,81.60
2019-05-21T06:42:43.096Z,86.00
2019-05-21T06:45:11.983Z,90.30
2019-05-21T06:47:40.608Z,93.70
2019-05-21T06:50:10.865Z,97.10
2019-05-21T06:52:39.682Z,98.30
2019-05-21T06:55:09.122Z,98.40
2019-05-21T06:57:37.984Z,97.90
2019-05-21T14:20:58.793Z,99.90
2019-05-21T14:23:27.560Z,99.90
2019-05-21T14:25:59.051Z,99.90
2019-05-21T14:28:27.809Z,99.90
2019-05-21T14:30:56.641Z,99.90
2019-05-21T14:33:25.419Z,99.90
2019-05-21T14:35:56.747Z,99.90
2019-05-21T14:38:25.710Z,99.90
2019-05-21T14:40:54.447Z,99.90
2019-05-21T14:43:24.995Z,99.90
2019-05-21T14:45:53.697Z,99.90
2019-05-21T14:48:22.458Z,99.90
2019-05-21T14:50:51.261Z,99.90
2019-05-21T14:53:19.979Z,99.90
2019-05-21T14:55:48.704Z,99.90
2019-05-21T14:58:17.589Z,99.90
2019-05-21T15:00:46.398Z,99.90
2019-05-21T15:03:25.018Z,99.90
2019-05-21T15:05:45.797Z,99.90
2019-05-21T15:08:14.583Z,99.90
2019-05-21T15:10:48.732Z,99.90
2019-05-21T15:13:13.909Z,99.90
2019-05-21T15:15:42.573Z,99.90
2019-05-21T15:18:19.605Z,99.90
2019-05-21T15:20:47.563Z,99.90
2019-05-21T15:23:16.255Z,99.90
2019-05-21T15:25:45.268Z,99.90
2019-05-21T15:28:15.575Z,99.90
2019-05-21T15:30:44.359Z,99.90
2019-05-21T15:33:13.357Z,99.90
2019-05-21T15:35:42.152Z,99.90
2019-05-21T15:38:10.992Z,99.90
2019-05-21T15:40:40.849Z,99.90
2019-05-21T15:43:13.992Z,99.90
2019-05-21T15:45:42.858Z,99.90
2019-05-21T15:48:11.512Z,98.50
2019-05-21T15:50:40.165Z,98.30
2019-05-21T15:53:08.984Z,97.20
2019-05-21T15:55:37.817Z,96.00
2019-05-21T15:58:06.481Z,96.00
2019-05-21T16:00:35.270Z,96.50
2019-05-21T16:03:04.125Z,95.40
2019-05-21T16:05:33.287Z,95.40
2019-05-21T16:08:02.328Z,95.00
2019-05-21T16:10:31.244Z,94.60
2019-05-21T16:13:02.172Z,95.50
2019-05-21T16:15:31.332Z,95.60
2019-05-21T16:18:00.115Z,96.40
2019-05-21T16:20:28.993Z,96.70
2019-05-21T16:22:57.681Z,96.70
2019-05-21T16:25:26.531Z,96.80
2019-05-21T16:27:55.246Z,97.20
2019-05-21T16:30:24.213Z,97.70
2019-05-21T16:32:54.532Z,97.70
2019-05-21T16:35:23.498Z,98.30
2019-05-21T16:37:52.271Z,98.20
2019-05-21T16:40:21.230Z,96.80
2019-05-21T16:42:50.337Z,96.80
2019-05-21T16:45:20.870Z,96.80
2019-05-21T16:47:55.765Z,97.20
2019-05-21T16:53:17.251Z,97.10
2019-05-21T16:55:47.698Z,97.40
2019-05-21T16:58:16.817Z,97.50
2019-05-21T17:00:45.640Z,98.00
2019-05-21T17:03:14.597Z,98.50
2019-05-21T17:05:43.538Z,98.70
2019-05-21T17:08:12.382Z,99.20
2019-05-21T17:10:41.311Z,99.50
2019-05-21T17:13:10.198Z,99.50
2019-05-21T17:15:39.031Z,99.20
2019-05-21T17:18:07.921Z,98.60
2019-05-21T17:20:36.904Z,98.50
2019-05-21T17:23:05.721Z,98.70
2019-05-21T17:25:36.923Z,99.10
2019-05-21T17:28:05.829Z,99.50
2019-05-21T17:30:34.749Z,99.90
2019-05-21T17:33:03.677Z,99.90
2019-05-21T17:35:36.362Z,99.90
2019-05-21T17:38:06.630Z,99.90
2019-05-21T17:40:38.692Z,99.90
2019-05-21T17:43:07.693Z,99.90
2019-05-21T17:45:39.384Z,99.90
2019-05-21T17:48:08.027Z,99.90
2019-05-21T17:50:36.897Z,99.90
2019-05-21T17:53:05.685Z,99.90
2019-05-21T17:55:34.634Z,99.90
2019-05-21T17:58:03.539Z,99.90
2019-05-21T18:00:33.912Z,99.90
2019-05-21T18:03:03.524Z,99.90
2019-05-21T18:05:32.512Z,99.90
2019-05-21T18:08:01.515Z,99.90
2019-05-21T18:10:30.789Z,99.90
2019-05-21T18:12:59.656Z,99.90
2019-05-21T18:15:28.363Z,99.90
2019-05-21T18:17:57.357Z,99.90
2019-05-21T18:20:26.647Z,99.90
2019-05-21T18:22:56.182Z,99.90
2019-05-21T18:25:25.039Z,99.90
2019-05-21T18:27:53.920Z,99.90
2019-05-21T18:30:23.314Z,99.90
2019-05-21T18:32:54.944Z,99.90
2019-05-21T18:35:23.768Z,99.90
2019-05-21T18:37:53.245Z,99.90
2019-05-21T18:40:22.089Z,99.90
2019-05-21T18:42:50.700Z,99.90
2019-05-21T18:45:19.585Z,99.90
2019-05-21T18:47:48.292Z,99.90
2019-05-21T18:50:17.245Z,99.90
2019-05-21T18:52:49.484Z,99.90
2019-05-21T18:55:16.986Z,99.90
2019-05-21T18:57:45.719Z,99.90
2019-05-21T19:00:16.730Z,99.90
2019-05-21T19:02:45.593Z,99.90
2019-05-21T19:05:14.586Z,99.90
2019-05-21T19:07:43.480Z,99.90
2019-05-21T19:10:13.078Z,99.90
2019-05-21T19:12:42.038Z,99.90
2019-05-21T19:15:11.432Z,99.90
2019-05-21T19:17:40.276Z,99.90
2019-05-21T19:20:11.227Z,99.90
2019-05-21T19:22:40.022Z,99.90
2019-05-21T19:25:08.914Z,99.90
2019-05-21T19:27:37.921Z,99.90
2019-05-21T19:30:08.014Z,99.90
2019-05-21T19:32:36.760Z,99.90
2019-05-21T19:35:07.375Z,99.90
2019-05-21T19:37:36.258Z,99.90
2019-05-21T19:40:08.076Z,99.90
2019-05-21T19:42:36.797Z,99.90
2019-05-21T19:45:07.115Z,99.90
2019-05-21T19:47:35.842Z,99.90
2019-05-21T19:50:09.474Z,99.90
2019-05-21T19:52:38.236Z,99.90
2019-05-21T19:55:07.791Z,99.90
2019-05-21T19:57:39.355Z,99.90
2019-05-21T20:00:08.610Z,99.90
2019-05-21T20:02:37.527Z,99.90
2019-05-21T20:05:08.282Z,99.90
2019-05-21T20:07:37.033Z,99.90
2019-05-21T20:10:07.846Z,99.90
2019-05-21T20:12:37.324Z,99.90
2019-05-21T20:15:07.478Z,99.90
2019-05-21T20:17:37.966Z,99.90
2019-05-21T20:20:09.700Z,99.90
2019-05-21T20:22:40.008Z,99.90
2019-05-21T20:25:10.246Z,99.90
2019-05-21T20:27:39.307Z,99.90
2019-05-21T20:30:13.198Z,99.90
2019-05-21T20:32:43.272Z,99.90
2019-05-21T20:35:14.424Z,99.90
2019-05-21T20:37:44.085Z,99.90
2019-05-21T20:40:13.724Z,99.90
2019-05-21T20:42:44.919Z,99.90
2019-05-21T20:45:15.647Z,99.90
2019-05-21T20:47:45.833Z,99.90
2019-05-21T20:50:16.984Z,99.90
2019-05-21T20:52:45.765Z,99.90
2019-05-21T20:55:17.341Z,99.90
2019-05-21T20:57:46.142Z,99.90
2019-05-21T21:00:18.096Z,99.90
2019-05-21T21:02:47.202Z,99.90
2019-05-21T21:05:16.895Z,99.90
2019-05-21T21:07:45.732Z,99.90
2019-05-21T21:10:15.084Z,99.90
2019-05-21T21:12:44.850Z,99.90
2019-05-21T21:15:17.052Z,99.90
2019-05-21T21:17:45.858Z,99.90
2019-05-21T21:20:14.681Z,99.90
2019-05-21T21:22:43.908Z,99.90
2019-05-21T21:25:14.436Z,99.90
2019-05-21T21:28:53.692Z,99.90
2019-05-21T21:30:19.829Z,99.90
2019-05-21T21:33:01.568Z,99.90
2019-05-21T21:35:30.873Z,99.90
2019-05-21T21:38:08.930Z,99.90
2019-05-21T21:40:38.051Z,99.90
2019-05-21T21:43:08.152Z,99.90
2019-05-21T21:45:37.873Z,99.90
2019-05-21T21:48:08.048Z,99.90
2019-05-21T21:50:37.812Z,99.90
2019-05-21T21:53:18.057Z,99.90
2019-05-21T21:56:19.991Z,99.90
2019-05-21T21:58:44.913Z,99.90
2019-05-21T22:01:26.195Z,99.90
2019-05-21T22:03:57.795Z,99.90
2019-05-21T22:06:29.159Z,99.90
2019-05-21T22:08:58.418Z,99.90
2019-05-21T22:11:27.502Z,99.90
2019-05-21T22:13:56.288Z,99.90
2019-05-21T22:16:25.051Z,99.90
2019-05-21T22:18:54.975Z,99.90
2019-05-21T22:21:24.091Z,99.90
2019-05-21T22:23:53.303Z,99.90
2019-05-21T22:26:22.293Z,99.90
2019-05-21T22:28:51.559Z,99.90
2019-05-21T22:31:20.343Z,99.90
2019-05-21T22:33:49.086Z,99.90
2019-05-21T22:36:17.952Z,99.90
2019-05-21T22:38:48.813Z,99.90
2019-05-21T22:41:17.672Z,99.90
2019-05-21T22:43:46.465Z,99.90
2019-05-21T22:46:15.250Z,99.90
2019-05-21T22:48:44.828Z,99.90
2019-05-21T22:51:13.597Z,99.90
2019-05-21T22:53:42.505Z,99.90
2019-05-21T22:56:13.585Z,99.90
2019-05-21T22:58:42.549Z,99.90
2019-05-21T23:01:11.825Z,99.90
2019-05-21T23:03:40.906Z,99.90
2019-05-21T23:06:09.924Z,99.90
2019-05-21T23:08:39.292Z,99.90
2019-05-21T23:11:08.112Z,99.90
2019-05-21T23:13:36.927Z,99.90
2019-05-21T23:16:06.584Z,99.90
2019-05-21T23:18:35.378Z,99.90
2019-05-21T23:21:07.141Z,99.90
2019-05-21T23:23:37.982Z,99.90
2019-05-21T23:26:08.298Z,99.90
2019-05-21T23:28:37.887Z,99.90
2019-05-21T23:31:08.705Z,99.90
2019-05-21T23:33:37.544Z,99.90
2019-05-21T23:36:06.722Z,99.90
2019-05-21T23:38:36.869Z,99.90
2019-05-21T23:41:06.144Z,99.90
2019-05-21T23:43:36.635Z,99.90
2019-05-21T23:46:06.451Z,99.90
2019-05-21T23:48:35.784Z,99.90
2019-05-21T23:51:04.624Z,99.90
2019-05-21T23:53:33.357Z,99.90
2019-05-21T23:56:02.200Z,99.90
2019-05-21T23:58:31.073Z,99.90
